Terminal Aerodrome Forecast
Issued by NWS

Home | Current Version | Previous Version | Text Only | Print | Product List | Glossary On
Versions: 1 2 3 4 5 6 7 8 9 10 11 12 13 14 15 16 17 18 19 20 21 22 23
000
FTUS44 KHGX 290520
TAFSGR
TAF
KSGR 290520Z 2906/3006 04006KT P6SM SCT020 BKN180
     FM291000 03006KT P6SM VCSH SCT015 BKN100
      TEMPO 2912/2916 SHRA BKN015
     FM291600 05007KT P6SM VCSH FEW020 BKN150
      TEMPO 2916/2920 SHRA BKN025
     FM292300 06008KT P6SM SCT040 BKN120
     FM300500 03004KT P6SM FEW009 BKN140=

USA.gov is the U.S. government's official web portal to all federal, state and local government web resources and services.